sensor_id;sensor_type;location;lat;lon;timestamp;pressure;altitude;pressure_sealevel;temperature;humidity
12626;BME280;6378;42.684;23.372;2022-09-28T00:01:33;94175.00;;;13.62;100.00
12626;BME280;6378;42.684;23.372;2022-09-28T00:03:59;94187.38;;;13.77;100.00
12626;BME280;6378;42.684;23.372;2022-09-28T00:06:27;94172.69;;;13.74;100.00
12626;BME280;6378;42.684;23.372;2022-09-28T00:08:53;94163.03;;;13.80;100.00
12626;BME280;6378;42.684;23.372;2022-09-28T00:11:20;94181.19;;;13.87;100.00
12626;BME280;6378;42.684;23.372;2022-09-28T00:13:51;94161.09;;;13.99;100.00
12626;BME280;6378;42.684;23.372;2022-09-28T00:16:20;94164.94;;;13.94;100.00
12626;BME280;6378;42.684;23.372;2022-09-28T00:18:45;94173.06;;;13.94;100.00
12626;BME280;6378;42.684;23.372;2022-09-28T00:21:16;94155.31;;;13.97;100.00
12626;BME280;6378;42.684;23.372;2022-09-28T00:23:43;94153.34;;;13.94;100.00
12626;BME280;6378;42.684;23.372;2022-09-28T00:26:29;94158.41;;;13.92;100.00
12626;BME280;6378;42.684;23.372;2022-09-28T00:28:57;94156.09;;;13.86;100.00
12626;BME280;6378;42.684;23.372;2022-09-28T00:31:24;94159.16;;;13.88;100.00
12626;BME280;6378;42.684;23.372;2022-09-28T00:33:51;94148.72;;;13.83;100.00
12626;BME280;6378;42.684;23.372;2022-09-28T00:36:17;94153.38;;;13.79;100.00
12626;BME280;6378;42.684;23.372;2022-09-28T00:38:42;94158.78;;;13.76;100.00
12626;BME280;6378;42.684;23.372;2022-09-28T00:41:10;94127.88;;;13.56;100.00
12626;BME280;6378;42.684;23.372;2022-09-28T00:43:35;94144.50;;;13.58;100.00
12626;BME280;6378;42.684;23.372;2022-09-28T00:46:21;94152.97;;;13.67;100.00
12626;BME280;6378;42.684;23.372;2022-09-28T00:48:55;94143.72;;;13.68;100.00
12626;BME280;6378;42.684;23.372;2022-09-28T00:51:24;94148.75;;;13.73;100.00
12626;BME280;6378;42.684;23.372;2022-09-28T00:53:50;94148.34;;;13.64;100.00
12626;BME280;6378;42.684;23.372;2022-09-28T00:56:19;94151.06;;;13.71;100.00
12626;BME280;6378;42.684;23.372;2022-09-28T00:58:48;94159.53;;;13.66;100.00
12626;BME280;6378;42.684;23.372;2022-09-28T01:01:16;94160.31;;;13.66;100.00
12626;BME280;6378;42.684;23.372;2022-09-28T01:03:42;94158.78;;;13.72;100.00
12626;BME280;6378;42.684;23.372;2022-09-28T01:06:17;94150.28;;;13.67;100.00
12626;BME280;6378;42.684;23.372;2022-09-28T01:08:44;94134.03;;;13.45;100.00
12626;BME280;6378;42.684;23.372;2022-09-28T01:11:10;94156.84;;;13.52;100.00
12626;BME280;6378;42.684;23.372;2022-09-28T01:13:35;94161.47;;;13.51;100.00
12626;BME280;6378;42.684;23.372;2022-09-28T01:18:46;94160.69;;;13.54;100.00
12626;BME280;6378;42.684;23.372;2022-09-28T01:29:08;94172.31;;;13.72;100.00
12626;BME280;6378;42.684;23.372;2022-09-28T01:31:40;94141.75;;;13.51;100.00
12626;BME280;6378;42.684;23.372;2022-09-28T01:34:16;94181.19;;;13.66;100.00
12626;BME280;6378;42.684;23.372;2022-09-28T01:36:47;94180.41;;;13.65;100.00
12626;BME280;6378;42.684;23.372;2022-09-28T01:39:19;94173.81;;;13.56;100.00
12626;BME280;6378;42.684;23.372;2022-09-28T01:41:49;94173.44;;;13.57;100.00
12626;BME280;6378;42.684;23.372;2022-09-28T01:44:18;94188.16;;;13.63;100.00
12626;BME280;6378;42.684;23.372;2022-09-28T01:46:48;94185.44;;;13.67;100.00
12626;BME280;6378;42.684;23.372;2022-09-28T01:49:24;94178.84;;;13.61;100.00
12626;BME280;6378;42.684;23.372;2022-09-28T01:51:56;94180.00;;;13.56;100.00
12626;BME280;6378;42.684;23.372;2022-09-28T01:54:32;94190.81;;;13.56;100.00
12626;BME280;6378;42.684;23.372;2022-09-28T01:59:40;94187.34;;;13.59;100.00
12626;BME280;6378;42.684;23.372;2022-09-28T02:02:15;94186.97;;;13.61;100.00
12626;BME280;6378;42.684;23.372;2022-09-28T02:04:53;94182.72;;;13.56;100.00
12626;BME280;6378;42.684;23.372;2022-09-28T02:07:24;94195.81;;;13.36;100.00
12626;BME280;6378;42.684;23.372;2022-09-28T02:09:55;94177.22;;;13.24;100.00
12626;BME280;6378;42.684;23.372;2022-09-28T02:12:31;94215.13;;;13.42;100.00
12626;BME280;6378;42.684;23.372;2022-09-28T02:15:25;94199.28;;;13.40;100.00
12626;BME280;6378;42.684;23.372;2022-09-28T02:17:49;94203.09;;;13.22;100.00
12626;BME280;6378;42.684;23.372;2022-09-28T02:20:15;94194.22;;;13.25;100.00
12626;BME280;6378;42.684;23.372;2022-09-28T02:22:50;94196.53;;;13.19;100.00
12626;BME280;6378;42.684;23.372;2022-09-28T02:25:26;94197.28;;;13.20;100.00
12626;BME280;6378;42.684;23.372;2022-09-28T02:27:59;94172.50;;;13.00;100.00
12626;BME280;6378;42.684;23.372;2022-09-28T02:30:28;94186.47;;;13.13;100.00
12626;BME280;6378;42.684;23.372;2022-09-28T02:32:56;94203.50;;;13.24;100.00
12626;BME280;6378;42.684;23.372;2022-09-28T02:35:24;94192.22;;;13.08;100.00
12626;BME280;6378;42.684;23.372;2022-09-28T02:37:49;94196.44;;;12.98;100.00
12626;BME280;6378;42.684;23.372;2022-09-28T02:40:20;94200.63;;;12.85;100.00
12626;BME280;6378;42.684;23.372;2022-09-28T02:43:03;94205.56;;;12.69;100.00
12626;BME280;6378;42.684;23.372;2022-09-28T02:51:21;94213.94;;;12.46;100.00
12626;BME280;6378;42.684;23.372;2022-09-28T02:54:26;94215.56;;;12.65;100.00
12626;BME280;6378;42.684;23.372;2022-09-28T03:04:41;94210.97;;;12.76;100.00
12626;BME280;6378;42.684;23.372;2022-09-28T03:12:43;94216.44;;;12.83;100.00
12626;BME280;6378;42.684;23.372;2022-09-28T03:15:13;94240.78;;;12.90;100.00
12626;BME280;6378;42.684;23.372;2022-09-28T03:17:43;94223.38;;;12.84;100.00
12626;BME280;6378;42.684;23.372;2022-09-28T03:20:09;94223.81;;;12.89;100.00
12626;BME280;6378;42.684;23.372;2022-09-28T03:22:34;94221.91;;;12.97;100.00
12626;BME280;6378;42.684;23.372;2022-09-28T03:25:00;94224.22;;;13.02;100.00
12626;BME280;6378;42.684;23.372;2022-09-28T03:27:25;94228.84;;;13.05;100.00
12626;BME280;6378;42.684;23.372;2022-09-28T03:29:51;94235.03;;;12.98;100.00
12626;BME280;6378;42.684;23.372;2022-09-28T03:32:16;94235.03;;;12.95;100.00
12626;BME280;6378;42.684;23.372;2022-09-28T03:34:41;94212.59;;;12.84;100.00
12626;BME280;6378;42.684;23.372;2022-09-28T03:37:07;94226.56;;;13.03;100.00
12626;BME280;6378;42.684;23.372;2022-09-28T03:39:32;94239.66;;;13.01;100.00
12626;BME280;6378;42.684;23.372;2022-09-28T03:42:00;94234.63;;;13.00;100.00
12626;BME280;6378;42.684;23.372;2022-09-28T03:44:26;94233.84;;;12.96;100.00
12626;BME280;6378;42.684;23.372;2022-09-28T03:46:51;94236.94;;;12.98;100.00
12626;BME280;6378;42.684;23.372;2022-09-28T03:49:16;94231.19;;;13.10;100.00
12626;BME280;6378;42.684;23.372;2022-09-28T03:51:42;94239.38;;;13.21;100.00
12626;BME280;6378;42.684;23.372;2022-09-28T03:54:07;94225.88;;;13.24;100.00
12626;BME280;6378;42.684;23.372;2022-09-28T03:56:33;94218.47;;;13.07;100.00
12626;BME280;6378;42.684;23.372;2022-09-28T03:58:58;94246.22;;;13.00;100.00
12626;BME280;6378;42.684;23.372;2022-09-28T04:01:23;94235.81;;;13.02;100.00
12626;BME280;6378;42.684;23.372;2022-09-28T04:03:52;94244.22;;;12.87;100.00
12626;BME280;6378;42.684;23.372;2022-09-28T04:06:20;94252.38;;;12.94;100.00
12626;BME280;6378;42.684;23.372;2022-09-28T04:08:45;94243.63;;;13.18;100.00
12626;BME280;6378;42.684;23.372;2022-09-28T04:11:11;94238.97;;;13.12;100.00
12626;BME280;6378;42.684;23.372;2022-09-28T04:13:36;94234.19;;;12.87;100.00
12626;BME280;6378;42.684;23.372;2022-09-28T04:16:02;94237.25;;;12.82;100.00
12626;BME280;6378;42.684;23.372;2022-09-28T04:18:29;94228.00;;;12.80;100.00
12626;BME280;6378;42.684;23.372;2022-09-28T04:21:20;94236.50;;;12.85;100.00
12626;BME280;6378;42.684;23.372;2022-09-28T04:23:46;94219.53;;;12.88;100.00
12626;BME280;6378;42.684;23.372;2022-09-28T04:26:21;94220.75;;;12.98;100.00
12626;BME280;6378;42.684;23.372;2022-09-28T04:28:47;94230.41;;;13.02;100.00
12626;BME280;6378;42.684;23.372;2022-09-28T04:31:44;94237.09;;;13.23;100.00
12626;BME280;6378;42.684;23.372;2022-09-28T04:34:11;94238.69;;;13.38;100.00
12626;BME280;6378;42.684;23.372;2022-09-28T04:36:37;94237.94;;;13.52;100.00
12626;BME280;6378;42.684;23.372;2022-09-28T04:39:03;94239.50;;;13.67;100.00
12626;BME280;6378;42.684;23.372;2022-09-28T04:41:29;94235.28;;;13.76;100.00
12626;BME280;6378;42.684;23.372;2022-09-28T04:43:55;94232.97;;;14.24;100.00
12626;BME280;6378;42.684;23.372;2022-09-28T04:46:20;94240.31;;;14.70;100.00
12626;BME280;6378;42.684;23.372;2022-09-28T04:48:45;94238.28;;;15.02;100.00
12626;BME280;6378;42.684;23.372;2022-09-28T04:51:11;94235.00;;;15.53;100.00
12626;BME280;6378;42.684;23.372;2022-09-28T04:53:36;94222.28;;;15.98;100.00
12626;BME280;6378;42.684;23.372;2022-09-28T04:56:06;94219.94;;;16.48;100.00
12626;BME280;6378;42.684;23.372;2022-09-28T04:58:34;94200.13;;;16.52;100.00
12626;BME280;6378;42.684;23.372;2022-09-28T05:01:02;94196.75;;;16.40;100.00
12626;BME280;6378;42.684;23.372;2022-09-28T05:03:29;94193.09;;;16.61;100.00
12626;BME280;6378;42.684;23.372;2022-09-28T05:05:54;94176.09;;;16.50;100.00
12626;BME280;6378;42.684;23.372;2022-09-28T05:08:20;94181.47;;;16.13;100.00
12626;BME280;6378;42.684;23.372;2022-09-28T05:10:45;94182.78;;;15.94;100.00
12626;BME280;6378;42.684;23.372;2022-09-28T05:13:12;94188.72;;;15.78;100.00
12626;BME280;6378;42.684;23.372;2022-09-28T05:15:39;94181.91;;;15.49;100.00
12626;BME280;6378;42.684;23.372;2022-09-28T05:18:05;94187.06;;;15.26;100.00
12626;BME280;6378;42.684;23.372;2022-09-28T05:20:31;94185.28;;;14.91;100.00
12626;BME280;6378;42.684;23.372;2022-09-28T05:22:57;94207.75;;;14.84;100.00
12626;BME280;6378;42.684;23.372;2022-09-28T05:25:22;94219.75;;;14.76;100.00
12626;BME280;6378;42.684;23.372;2022-09-28T05:27:53;94233.38;;;14.48;100.00
12626;BME280;6378;42.684;23.372;2022-09-28T05:30:20;94236.47;;;14.50;100.00
12626;BME280;6378;42.684;23.372;2022-09-28T05:32:47;94239.19;;;14.39;100.00
12626;BME280;6378;42.684;23.372;2022-09-28T05:35:13;94232.63;;;14.37;100.00
12626;BME280;6378;42.684;23.372;2022-09-28T05:37:38;94232.59;;;14.29;100.00
12626;BME280;6378;42.684;23.372;2022-09-28T05:40:05;94246.13;;;14.29;100.00
12626;BME280;6378;42.684;23.372;2022-09-28T05:42:31;94244.19;;;14.26;100.00
12626;BME280;6378;42.684;23.372;2022-09-28T05:44:57;94215.97;;;14.06;100.00
12626;BME280;6378;42.684;23.372;2022-09-28T05:47:23;94234.91;;;14.20;100.00
12626;BME280;6378;42.684;23.372;2022-09-28T05:49:50;94249.97;;;14.32;100.00
12626;BME280;6378;42.684;23.372;2022-09-28T05:52:15;94241.88;;;14.25;100.00
12626;BME280;6378;42.684;23.372;2022-09-28T05:54:41;94252.31;;;14.19;100.00
12626;BME280;6378;42.684;23.372;2022-09-28T05:57:06;94243.03;;;14.06;100.00
12626;BME280;6378;42.684;23.372;2022-09-28T05:59:32;94248.81;;;14.33;100.00
12626;BME280;6378;42.684;23.372;2022-09-28T06:01:59;94252.31;;;14.33;100.00
12626;BME280;6378;42.684;23.372;2022-09-28T06:04:25;94249.59;;;14.23;100.00
12626;BME280;6378;42.684;23.372;2022-09-28T06:06:50;94237.22;;;14.47;100.00
12626;BME280;6378;42.684;23.372;2022-09-28T06:09:15;94251.16;;;14.49;100.00
12626;BME280;6378;42.684;23.372;2022-09-28T06:11:41;94235.66;;;14.56;100.00
12626;BME280;6378;42.684;23.372;2022-09-28T06:14:06;94259.25;;;14.66;100.00
12626;BME280;6378;42.684;23.372;2022-09-28T06:16:32;94236.84;;;14.66;100.00
12626;BME280;6378;42.684;23.372;2022-09-28T06:18:59;94262.28;;;14.97;100.00
12626;BME280;6378;42.684;23.372;2022-09-28T06:21:24;94270.78;;;15.09;100.00
12626;BME280;6378;42.684;23.372;2022-09-28T06:23:50;94268.88;;;15.03;100.00
12626;BME280;6378;42.684;23.372;2022-09-28T06:26:15;94270.72;;;15.20;100.00
12626;BME280;6378;42.684;23.372;2022-09-28T06:28:41;94269.16;;;15.33;100.00
12626;BME280;6378;42.684;23.372;2022-09-28T06:31:07;94262.66;;;15.06;100.00
12626;BME280;6378;42.684;23.372;2022-09-28T06:33:32;94262.31;;;14.90;100.00
12626;BME280;6378;42.684;23.372;2022-09-28T06:36:00;94259.66;;;14.58;100.00
12626;BME280;6378;42.684;23.372;2022-09-28T06:38:25;94266.25;;;14.39;100.00
12626;BME280;6378;42.684;23.372;2022-09-28T06:40:51;94260.03;;;14.17;100.00
12626;BME280;6378;42.684;23.372;2022-09-28T06:43:16;94222.13;;;13.75;100.00
12626;BME280;6378;42.684;23.372;2022-09-28T06:45:43;94197.00;;;13.57;100.00
12626;BME280;6378;42.684;23.372;2022-09-28T06:48:14;94273.19;;;14.05;100.00
12626;BME280;6378;42.684;23.372;2022-09-28T06:50:40;94278.59;;;14.29;100.00
12626;BME280;6378;42.684;23.372;2022-09-28T06:53:09;94271.66;;;14.36;100.00
12626;BME280;6378;42.684;23.372;2022-09-28T06:55:41;94280.19;;;14.48;100.00
12626;BME280;6378;42.684;23.372;2022-09-28T06:58:10;94271.66;;;14.64;100.00
12626;BME280;6378;42.684;23.372;2022-09-28T07:00:37;94274.69;;;14.87;100.00
12626;BME280;6378;42.684;23.372;2022-09-28T07:03:10;94266.16;;;14.92;100.00
12626;BME280;6378;42.684;23.372;2022-09-28T07:05:36;94260.38;;;14.90;100.00
12626;BME280;6378;42.684;23.372;2022-09-28T07:08:05;94270.69;;;15.34;100.00
12626;BME280;6378;42.684;23.372;2022-09-28T07:10:31;94272.91;;;15.68;100.00
12626;BME280;6378;42.684;23.372;2022-09-28T07:12:59;94275.38;;;16.03;100.00
12626;BME280;6378;42.684;23.372;2022-09-28T07:15:27;94260.09;;;16.75;100.00
12626;BME280;6378;42.684;23.372;2022-09-28T07:18:00;94252.19;;;16.87;100.00
12626;BME280;6378;42.684;23.372;2022-09-28T07:20:26;94254.09;;;17.28;100.00
12626;BME280;6378;42.684;23.372;2022-09-28T07:22:53;94236.66;;;17.22;100.00
12626;BME280;6378;42.684;23.372;2022-09-28T07:25:19;94253.53;;;17.44;100.00
12626;BME280;6378;42.684;23.372;2022-09-28T07:27:45;94256.13;;;17.51;100.00
12626;BME280;6378;42.684;23.372;2022-09-28T07:30:11;94249.28;;;17.73;100.00
12626;BME280;6378;42.684;23.372;2022-09-28T07:32:37;94238.28;;;17.80;100.00
12626;BME280;6378;42.684;23.372;2022-09-28T07:35:05;94229.25;;;17.87;100.00
12626;BME280;6378;42.684;23.372;2022-09-28T07:37:33;94240.88;;;18.17;100.00
12626;BME280;6378;42.684;23.372;2022-09-28T07:39:59;94241.84;;;18.54;100.00
12626;BME280;6378;42.684;23.372;2022-09-28T07:42:43;94236.00;;;18.55;100.00
12626;BME280;6378;42.684;23.372;2022-09-28T07:45:09;94247.34;;;19.17;100.00
12626;BME280;6378;42.684;23.372;2022-09-28T07:47:34;94237.53;;;19.78;100.00
12626;BME280;6378;42.684;23.372;2022-09-28T07:49:59;94233.94;;;20.17;100.00
12626;BME280;6378;42.684;23.372;2022-09-28T07:52:25;94223.69;;;20.21;100.00
12626;BME280;6378;42.684;23.372;2022-09-28T07:54:52;94229.63;;;19.84;100.00
12626;BME280;6378;42.684;23.372;2022-09-28T07:57:19;94205.84;;;19.65;100.00
12626;BME280;6378;42.684;23.372;2022-09-28T07:59:45;94229.38;;;19.59;100.00
12626;BME280;6378;42.684;23.372;2022-09-28T08:02:11;94226.50;;;19.46;100.00
12626;BME280;6378;42.684;23.372;2022-09-28T08:04:37;94231.44;;;19.55;100.00
12626;BME280;6378;42.684;23.372;2022-09-28T08:07:03;94221.88;;;19.23;100.00
12626;BME280;6378;42.684;23.372;2022-09-28T08:09:32;94231.66;;;19.21;100.00
12626;BME280;6378;42.684;23.372;2022-09-28T08:11:58;94235.06;;;19.48;100.00
12626;BME280;6378;42.684;23.372;2022-09-28T08:14:23;94225.66;;;19.69;100.00
12626;BME280;6378;42.684;23.372;2022-09-28T08:16:49;94227.19;;;19.70;100.00
12626;BME280;6378;42.684;23.372;2022-09-28T08:19:14;94201.16;;;19.65;100.00
12626;BME280;6378;42.684;23.372;2022-09-28T08:21:40;94211.47;;;19.58;100.00
12626;BME280;6378;42.684;23.372;2022-09-28T08:24:15;94194.63;;;19.79;100.00
12626;BME280;6378;42.684;23.372;2022-09-28T08:26:42;94227.34;;;20.15;100.00
12626;BME280;6378;42.684;23.372;2022-09-28T08:29:08;94220.91;;;20.57;100.00
12626;BME280;6378;42.684;23.372;2022-09-28T08:31:33;94219.00;;;20.70;100.00
12626;BME280;6378;42.684;23.372;2022-09-28T08:33:59;94221.66;;;20.58;100.00
12626;BME280;6378;42.684;23.372;2022-09-28T08:36:25;94216.94;;;20.74;100.00
12626;BME280;6378;42.684;23.372;2022-09-28T08:38:50;94228.22;;;20.77;100.00
12626;BME280;6378;42.684;23.372;2022-09-28T08:41:41;94218.75;;;20.65;98.67
12626;BME280;6378;42.684;23.372;2022-09-28T08:44:19;94213.94;;;20.69;96.55
12626;BME280;6378;42.684;23.372;2022-09-28T08:46:54;94212.97;;;20.92;96.18
12626;BME280;6378;42.684;23.372;2022-09-28T08:49:23;94207.72;;;20.97;95.96
12626;BME280;6378;42.684;23.372;2022-09-28T08:52:00;94212.25;;;21.04;95.00
12626;BME280;6378;42.684;23.372;2022-09-28T08:54:46;94208.63;;;21.23;96.55
12626;BME280;6378;42.684;23.372;2022-09-28T08:57:18;94209.56;;;21.45;100.00
12626;BME280;6378;42.684;23.372;2022-09-28T08:59:51;94191.69;;;21.41;94.37
12626;BME280;6378;42.684;23.372;2022-09-28T09:02:30;94189.50;;;21.36;90.80
12626;BME280;6378;42.684;23.372;2022-09-28T09:04:58;94184.25;;;21.12;87.67
12626;BME280;6378;42.684;23.372;2022-09-28T09:13:29;94200.91;;;21.47;85.03
12626;BME280;6378;42.684;23.372;2022-09-28T09:18:36;94196.09;;;21.51;76.24
12626;BME280;6378;42.684;23.372;2022-09-28T09:21:13;94194.59;;;21.50;76.51
12626;BME280;6378;42.684;23.372;2022-09-28T09:26:18;94182.34;;;21.92;82.30
12626;BME280;6378;42.684;23.372;2022-09-28T09:28:59;94178.31;;;21.97;82.87
12626;BME280;6378;42.684;23.372;2022-09-28T09:32:11;94180.41;;;22.06;77.89
12626;BME280;6378;42.684;23.372;2022-09-28T09:40:25;94172.84;;;21.97;78.85
12626;BME280;6378;42.684;23.372;2022-09-28T09:48:34;94162.06;;;22.15;69.96
12626;BME280;6378;42.684;23.372;2022-09-28T09:51:09;94164.38;;;22.17;71.36
12626;BME280;6378;42.684;23.372;2022-09-28T09:56:12;94167.34;;;22.22;67.06
12626;BME280;6378;42.684;23.372;2022-09-28T09:58:49;94168.72;;;22.52;66.18
12626;BME280;6378;42.684;23.372;2022-09-28T10:01:20;94170.13;;;22.57;66.70
12626;BME280;6378;42.684;23.372;2022-09-28T10:03:47;94153.97;;;22.59;64.79
12626;BME280;6378;42.684;23.372;2022-09-28T10:06:18;94170.06;;;22.35;61.83
12626;BME280;6378;42.684;23.372;2022-09-28T10:08:49;94166.06;;;22.61;64.99
12626;BME280;6378;42.684;23.372;2022-09-28T10:11:41;94170.78;;;22.61;62.05
12626;BME280;6378;42.684;23.372;2022-09-28T10:14:12;94158.13;;;22.63;65.68
12626;BME280;6378;42.684;23.372;2022-09-28T10:16:40;94165.25;;;22.73;63.76
12626;BME280;6378;42.684;23.372;2022-09-28T10:19:10;94165.94;;;22.65;63.38
12626;BME280;6378;42.684;23.372;2022-09-28T10:21:37;94159.47;;;22.71;62.83
12626;BME280;6378;42.684;23.372;2022-09-28T10:24:04;94157.63;;;22.56;60.87
12626;BME280;6378;42.684;23.372;2022-09-28T10:26:38;94156.38;;;22.69;57.93
12626;BME280;6378;42.684;23.372;2022-09-28T10:29:11;94168.00;;;22.73;55.12
12626;BME280;6378;42.684;23.372;2022-09-28T10:31:46;94144.22;;;22.92;54.97
12626;BME280;6378;42.684;23.372;2022-09-28T10:34:14;94155.72;;;23.21;57.48
12626;BME280;6378;42.684;23.372;2022-09-28T10:36:53;94142.94;;;23.27;56.16
12626;BME280;6378;42.684;23.372;2022-09-28T10:41:55;94120.88;;;23.31;51.50
12626;BME280;6378;42.684;23.372;2022-09-28T10:44:23;94133.69;;;23.34;53.03
12626;BME280;6378;42.684;23.372;2022-09-28T10:46:56;94134.31;;;23.38;54.40
12626;BME280;6378;42.684;23.372;2022-09-28T10:49:23;94136.44;;;23.56;53.14
12626;BME280;6378;42.684;23.372;2022-09-28T10:51:52;94125.31;;;23.59;50.87
12626;BME280;6378;42.684;23.372;2022-09-28T10:54:23;94111.25;;;23.57;53.16
12626;BME280;6378;42.684;23.372;2022-09-28T10:56:51;94112.25;;;23.72;51.20
12626;BME280;6378;42.684;23.372;2022-09-28T11:01:56;94114.13;;;23.85;47.76
12626;BME280;6378;42.684;23.372;2022-09-28T11:04:25;94102.09;;;23.91;48.52
12626;BME280;6378;42.684;23.372;2022-09-28T11:06:52;94103.81;;;24.07;47.41
12626;BME280;6378;42.684;23.372;2022-09-28T11:09:32;94102.28;;;24.06;48.01
12626;BME280;6378;42.684;23.372;2022-09-28T11:12:02;94102.19;;;24.19;48.61
12626;BME280;6378;42.684;23.372;2022-09-28T11:14:38;94101.53;;;24.14;45.56
12626;BME280;6378;42.684;23.372;2022-09-28T11:19:53;94089.06;;;24.32;44.99
12626;BME280;6378;42.684;23.372;2022-09-28T11:24:46;94081.63;;;23.92;45.67
12626;BME280;6378;42.684;23.372;2022-09-28T11:27:23;94073.06;;;23.90;45.57
12626;BME280;6378;42.684;23.372;2022-09-28T11:29:56;94072.69;;;24.19;46.26
12626;BME280;6378;42.684;23.372;2022-09-28T11:32:24;94078.53;;;24.39;47.06
12626;BME280;6378;42.684;23.372;2022-09-28T11:34:55;94066.31;;;24.58;44.79
12626;BME280;6378;42.684;23.372;2022-09-28T11:43:02;94063.31;;;25.44;42.60
12626;BME280;6378;42.684;23.372;2022-09-28T11:48:12;94059.28;;;25.54;43.20
12626;BME280;6378;42.684;23.372;2022-09-28T11:53:35;94076.78;;;25.33;40.86
12626;BME280;6378;42.684;23.372;2022-09-28T11:58:51;94061.69;;;25.19;41.88
12626;BME280;6378;42.684;23.372;2022-09-28T12:01:26;94055.88;;;25.26;41.81
12626;BME280;6378;42.684;23.372;2022-09-28T12:03:58;94043.97;;;24.84;42.65
12626;BME280;6378;42.684;23.372;2022-09-28T12:06:34;94047.88;;;25.28;41.20
12626;BME280;6378;42.684;23.372;2022-09-28T12:09:13;94053.97;;;25.41;41.70
12626;BME280;6378;42.684;23.372;2022-09-28T12:11:42;94047.22;;;25.42;41.42
12626;BME280;6378;42.684;23.372;2022-09-28T12:14:34;94045.81;;;25.05;40.65
12626;BME280;6378;42.684;23.372;2022-09-28T12:17:17;94042.88;;;25.18;40.54
12626;BME280;6378;42.684;23.372;2022-09-28T12:19:52;94054.59;;;25.36;40.92
12626;BME280;6378;42.684;23.372;2022-09-28T12:22:35;94051.25;;;25.32;39.65
12626;BME280;6378;42.684;23.372;2022-09-28T12:25:02;94046.44;;;25.00;40.81
12626;BME280;6378;42.684;23.372;2022-09-28T12:27:46;94046.13;;;24.98;41.63
12626;BME280;6378;42.684;23.372;2022-09-28T12:30:17;94049.97;;;24.91;42.26
12626;BME280;6378;42.684;23.372;2022-09-28T12:35:26;94058.06;;;24.68;43.76
12626;BME280;6378;42.684;23.372;2022-09-28T12:40:32;94054.22;;;24.83;42.43
12626;BME280;6378;42.684;23.372;2022-09-28T12:49:36;94044.63;;;24.42;44.42
12626;BME280;6378;42.684;23.372;2022-09-28T13:23:59;94033.91;;;24.17;44.69
12626;BME280;6378;42.684;23.372;2022-09-28T13:26:41;94045.66;;;24.17;45.02
12626;BME280;6378;42.684;23.372;2022-09-28T13:29:13;94040.94;;;24.27;45.75
12626;BME280;6378;42.684;23.372;2022-09-28T13:32:06;94041.72;;;24.19;46.14
12626;BME280;6378;42.684;23.372;2022-09-28T13:35:03;94038.97;;;24.28;45.29
12626;BME280;6378;42.684;23.372;2022-09-28T13:37:29;94056.22;;;24.28;45.83
12626;BME280;6378;42.684;23.372;2022-09-28T13:40:07;94045.50;;;24.48;45.29
12626;BME280;6378;42.684;23.372;2022-09-28T13:43:02;94036.19;;;24.64;44.79
12626;BME280;6378;42.684;23.372;2022-09-28T13:45:42;94047.19;;;24.73;45.20
12626;BME280;6378;42.684;23.372;2022-09-28T13:48:16;94039.28;;;24.57;43.05
12626;BME280;6378;42.684;23.372;2022-09-28T13:50:53;94037.13;;;24.88;43.25
12626;BME280;6378;42.684;23.372;2022-09-28T13:53:50;94043.69;;;25.00;43.30
12626;BME280;6378;42.684;23.372;2022-09-28T13:56:33;94037.84;;;24.98;40.91
12626;BME280;6378;42.684;23.372;2022-09-28T13:59:23;94038.66;;;24.89;40.08
12626;BME280;6378;42.684;23.372;2022-09-28T14:07:56;94037.56;;;25.05;42.57
12626;BME280;6378;42.684;23.372;2022-09-28T14:18:44;94026.56;;;24.69;43.37
12626;BME280;6378;42.684;23.372;2022-09-28T14:26:35;94035.09;;;24.98;41.82
12626;BME280;6378;42.684;23.372;2022-09-28T14:29:25;94028.50;;;25.14;43.23
12626;BME280;6378;42.684;23.372;2022-09-28T14:31:57;94023.16;;;25.10;41.84
12626;BME280;6378;42.684;23.372;2022-09-28T14:34:35;94006.84;;;24.88;41.46
12626;BME280;6378;42.684;23.372;2022-09-28T14:37:04;94029.59;;;24.98;42.14
12626;BME280;6378;42.684;23.372;2022-09-28T14:40:08;94020.44;;;24.74;43.90
12626;BME280;6378;42.684;23.372;2022-09-28T14:45:48;94027.31;;;24.69;42.57
12626;BME280;6378;42.684;23.372;2022-09-28T14:48:18;94020.44;;;24.65;43.01
12626;BME280;6378;42.684;23.372;2022-09-28T14:50:44;94027.16;;;24.64;44.34
12626;BME280;6378;42.684;23.372;2022-09-28T14:53:17;94024.44;;;24.45;44.04
12626;BME280;6378;42.684;23.372;2022-09-28T14:55:48;94021.19;;;24.10;41.28
12626;BME280;6378;42.684;23.372;2022-09-28T14:58:17;94017.69;;;24.19;42.55
12626;BME280;6378;42.684;23.372;2022-09-28T15:00:45;94013.44;;;24.18;43.55
12626;BME280;6378;42.684;23.372;2022-09-28T15:03:11;94018.63;;;24.34;43.60
12626;BME280;6378;42.684;23.372;2022-09-28T15:05:42;94026.91;;;24.43;42.87
12626;BME280;6378;42.684;23.372;2022-09-28T15:08:10;94029.78;;;24.40;41.83
12626;BME280;6378;42.684;23.372;2022-09-28T15:10:38;94022.28;;;24.22;43.22
12626;BME280;6378;42.684;23.372;2022-09-28T15:13:24;94032.25;;;24.38;46.80
12626;BME280;6378;42.684;23.372;2022-09-28T15:15:53;94040.94;;;24.45;44.96
12626;BME280;6378;42.684;23.372;2022-09-28T15:21:13;94043.22;;;24.65;43.86
12626;BME280;6378;42.684;23.372;2022-09-28T15:23:41;94047.19;;;24.64;43.25
12626;BME280;6378;42.684;23.372;2022-09-28T15:26:24;94051.34;;;24.50;44.25
12626;BME280;6378;42.684;23.372;2022-09-28T15:28:51;94053.16;;;24.44;46.52
12626;BME280;6378;42.684;23.372;2022-09-28T15:31:20;94048.91;;;24.43;45.69
12626;BME280;6378;42.684;23.372;2022-09-28T15:33:46;94027.63;;;24.16;44.71
12626;BME280;6378;42.684;23.372;2022-09-28T15:36:42;94048.38;;;23.99;46.56
12626;BME280;6378;42.684;23.372;2022-09-28T15:39:30;94048.44;;;23.68;44.94
12626;BME280;6378;42.684;23.372;2022-09-28T15:41:56;94051.13;;;23.50;44.46